Time;durP1;ratioP1;P1;durP2;ratioP2;P2;SDS_P1;SDS_P2;PMS_P1;PMS_P2;Temp;Humidity;BMP_temperature;BMP_pressure;BME280_temperature;BME280_humidity;BME280_pressure;Samples;Min_cycle;Max_cycle;Signal;HPM_P1;HPM_P2
2022/04/12 00:01:19;;;;;;;2.78;2.00;;;19.70;34.10;;;;;;5055514;28;20483;-79
2022/04/12 00:03:45;;;;;;;2.53;2.20;;;19.70;34.10;;;;;;5056281;28;19998;-79
2022/04/12 00:06:11;;;;;;;3.38;2.30;;;19.70;34.10;;;;;;5040794;28;20029;-79
2022/04/12 00:08:38;;;;;;;3.83;2.35;;;19.70;34.10;;;;;;5058129;28;20029;-79
2022/04/12 00:11:05;;;;;;;4.18;2.35;;;19.70;34.10;;;;;;5057593;28;20005;-79
2022/04/12 00:13:31;;;;;;;3.00;2.22;;;19.60;34.10;;;;;;5058452;28;20013;-77
2022/04/12 00:15:57;;;;;;;3.33;2.20;;;19.70;34.20;;;;;;5056455;28;20060;-76
2022/04/12 00:21:08;;;;;;;2.65;2.25;;;19.60;34.20;;;;;;5056856;28;20041;-76
2022/04/12 00:23:34;;;;;;;2.72;2.20;;;19.60;34.20;;;;;;5054887;28;20010;-76
2022/04/12 00:26:00;;;;;;;3.92;2.20;;;19.60;34.20;;;;;;5037689;28;20026;-76
2022/04/12 00:28:27;;;;;;;2.58;2.10;;;19.60;34.30;;;;;;5055860;28;20016;-76
2022/04/12 00:30:53;;;;;;;2.85;2.10;;;19.60;34.30;;;;;;5036124;28;20021;-78
2022/04/12 00:33:19;;;;;;;2.97;1.95;;;19.60;34.30;;;;;;5052336;28;20025;-77
2022/04/12 00:35:45;;;;;;;4.07;2.25;;;19.60;34.40;;;;;;5052619;28;20029;-77
2022/04/12 00:38:18;;;;;;;2.72;2.10;;;19.60;34.40;;;;;;5054402;28;20017;-78
2022/04/12 00:40:45;;;;;;;2.78;2.20;;;19.60;35.00;;;;;;5055043;28;20041;-77
2022/04/12 00:43:11;;;;;;;4.15;2.60;;;19.60;34.40;;;;;;5052310;28;20013;-77
2022/04/12 00:45:37;;;;;;;2.83;2.17;;;19.60;34.40;;;;;;5034806;28;20041;-77
2022/04/12 00:48:03;;;;;;;3.17;2.17;;;19.60;34.50;;;;;;5036486;28;20029;-77
2022/04/12 00:50:29;;;;;;;4.10;2.28;;;19.60;34.50;;;;;;5051841;28;20180;-78
2022/04/12 00:52:56;;;;;;;3.22;2.00;;;19.60;34.50;;;;;;5052974;28;20423;-78
2022/04/12 00:55:21;;;;;;;2.38;1.95;;;19.60;34.50;;;;;;5037469;28;20028;-78
2022/04/12 00:57:48;;;;;;;2.35;2.08;;;19.60;34.50;;;;;;5053752;28;20013;-77
2022/04/12 01:00:16;;;;;;;2.65;2.10;;;19.50;34.50;;;;;;5053432;28;19990;-78
2022/04/12 01:02:42;;;;;;;3.72;1.98;;;19.60;34.60;;;;;;5033751;28;20021;-77
2022/04/12 01:05:08;;;;;;;2.50;2.05;;;19.50;34.50;;;;;;5052819;28;20025;-78
2022/04/12 01:07:35;;;;;;;3.10;2.00;;;19.50;34.60;;;;;;5050555;28;20054;-76
2022/04/12 01:10:01;;;;;;;2.65;2.03;;;19.50;34.60;;;;;;5049299;28;20026;-77
2022/04/12 01:12:30;;;;;;;2.75;2.00;;;19.50;34.60;;;;;;5049496;28;20017;-77
2022/04/12 01:15:10;;;;;;;3.17;2.03;;;19.50;34.70;;;;;;5046927;28;20092;-77
2022/04/12 01:17:36;;;;;;;2.55;2.22;;;19.50;34.70;;;;;;5046470;28;20037;-80
2022/04/12 01:20:02;;;;;;;3.00;2.10;;;19.50;34.70;;;;;;5044815;28;20389;-77
2022/04/12 01:22:27;;;;;;;3.13;2.40;;;19.50;34.70;;;;;;5028535;28;20014;-79
2022/04/12 01:24:54;;;;;;;2.67;1.92;;;19.50;34.80;;;;;;5046332;28;20009;-77
2022/04/12 01:27:20;;;;;;;2.50;2.00;;;19.50;34.80;;;;;;5045960;28;20021;-78
2022/04/12 01:29:48;;;;;;;2.65;2.10;;;19.50;34.80;;;;;;5044613;28;20013;-77
2022/04/12 01:32:14;;;;;;;2.35;1.83;;;19.50;34.80;;;;;;5042339;28;20029;-77
2022/04/12 01:34:40;;;;;;;3.20;2.20;;;19.50;34.80;;;;;;5041044;28;20033;-79
2022/04/12 01:37:09;;;;;;;3.03;2.20;;;19.40;34.80;;;;;;5038337;28;20030;-76
2022/04/12 01:39:36;;;;;;;2.67;2.20;;;19.50;34.90;;;;;;5057536;28;20071;-75
2022/04/12 01:42:03;;;;;;;2.90;2.10;;;19.40;34.90;;;;;;5039670;28;20014;-76
2022/04/12 01:44:29;;;;;;;2.88;2.25;;;19.50;34.90;;;;;;5039259;28;20108;-77
2022/04/12 01:46:58;;;;;;;3.08;2.38;;;19.50;34.90;;;;;;5038449;28;20017;-75
2022/04/12 01:49:24;;;;;;;2.47;2.13;;;19.40;34.90;;;;;;5039108;28;20108;-78
2022/04/12 01:51:50;;;;;;;3.25;2.28;;;19.40;34.90;;;;;;5036298;28;20018;-78
2022/04/12 01:54:17;;;;;;;2.47;2.20;;;19.40;34.90;;;;;;5035145;28;20029;-75
2022/04/12 01:56:43;;;;;;;2.72;1.80;;;19.40;34.90;;;;;;5041603;28;20381;-76
2022/04/12 01:59:10;;;;;;;2.40;1.83;;;19.40;35.00;;;;;;5031922;28;20064;-75
2022/04/12 02:01:36;;;;;;;2.20;1.92;;;19.40;35.00;;;;;;5033016;28;20040;-77
2022/04/12 02:04:02;;;;;;;2.55;2.08;;;19.40;35.00;;;;;;5031877;28;20026;-77
2022/04/12 02:06:28;;;;;;;2.10;1.90;;;19.40;35.00;;;;;;5032067;28;20029;-77
2022/04/12 02:08:54;;;;;;;3.13;1.90;;;19.40;35.10;;;;;;5032730;28;20079;-77
2022/04/12 02:11:21;;;;;;;3.33;2.20;;;19.40;35.00;;;;;;5033591;28;20033;-77
2022/04/12 02:13:49;;;;;;;3.35;2.25;;;19.40;35.10;;;;;;5037550;28;20388;-78
2022/04/12 02:16:17;;;;;;;2.22;1.90;;;19.40;35.10;;;;;;5038375;28;20049;-76
2022/04/12 02:18:44;;;;;;;2.28;2.05;;;19.40;35.10;;;;;;5039917;28;20021;-79
2022/04/12 02:21:12;;;;;;;2.72;1.88;;;19.40;35.20;;;;;;5038627;28;20014;-77
2022/04/12 02:23:38;;;;;;;2.97;2.15;;;19.30;35.10;;;;;;5037698;28;20028;-76
2022/04/12 02:26:04;;;;;;;3.78;2.25;;;19.30;35.70;;;;;;5037502;28;20120;-76
2022/04/12 02:28:30;;;;;;;3.13;2.10;;;19.30;35.20;;;;;;5038038;28;20053;-78
2022/04/12 02:30:56;;;;;;;2.45;2.08;;;19.30;35.20;;;;;;5038232;28;20091;-79
2022/04/12 02:33:22;;;;;;;3.55;2.38;;;19.30;35.20;;;;;;5038899;28;20030;-79
2022/04/12 02:35:49;;;;;;;2.35;1.83;;;19.30;35.20;;;;;;5037685;28;20029;-77
2022/04/12 02:38:15;;;;;;;3.45;2.35;;;19.30;35.20;;;;;;5038394;28;20021;-77
2022/04/12 02:40:41;;;;;;;3.35;2.20;;;19.30;35.20;;;;;;5038446;28;20434;-79
2022/04/12 02:43:07;;;;;;;2.97;1.95;;;19.30;35.20;;;;;;5038284;28;20513;-79
2022/04/12 02:45:33;;;;;;;2.53;1.92;;;19.30;35.20;;;;;;5021727;28;20075;-76
2022/04/12 02:48:01;;;;;;;2.30;1.95;;;19.30;35.30;;;;;;5039812;28;20018;-78
2022/04/12 02:50:28;;;;;;;3.40;2.17;;;19.30;35.30;;;;;;5038569;28;20104;-76
2022/04/12 02:52:55;;;;;;;2.25;2.05;;;19.30;35.30;;;;;;5041051;28;20018;-76
2022/04/12 02:55:21;;;;;;;2.67;2.20;;;19.30;35.30;;;;;;5043084;28;20021;-76
2022/04/12 02:57:47;;;;;;;3.33;2.35;;;19.30;35.30;;;;;;5041420;28;20488;-77
2022/04/12 03:00:15;;;;;;;3.45;2.00;;;19.30;35.30;;;;;;5042712;28;20013;-76
2022/04/12 03:02:41;;;;;;;2.28;1.90;;;19.30;35.30;;;;;;5041919;28;20017;-78
2022/04/12 03:05:08;;;;;;;2.72;1.88;;;19.30;35.40;;;;;;5040810;28;20022;-76
2022/04/12 03:07:34;;;;;;;2.28;2.00;;;19.30;35.40;;;;;;5040339;28;20027;-78
2022/04/12 03:10:00;;;;;;;2.55;1.98;;;19.30;35.50;;;;;;5019134;28;20107;-77
2022/04/12 03:12:25;;;;;;;3.33;2.05;;;19.30;35.50;;;;;;5019386;28;20021;-78
2022/04/12 03:14:52;;;;;;;2.03;1.83;;;19.30;35.50;;;;;;5036473;28;20124;-78
2022/04/12 03:17:21;;;;;;;2.63;1.83;;;19.30;35.50;;;;;;5036553;28;20057;-79
2022/04/12 03:19:48;;;;;;;2.42;2.10;;;19.20;35.40;;;;;;5036618;28;20037;-77
2022/04/12 03:22:14;;;;;;;2.78;2.15;;;19.20;35.50;;;;;;5040917;28;20036;-80
2022/04/12 03:24:40;;;;;;;2.72;2.25;;;19.20;35.50;;;;;;5043693;28;20069;-79
2022/04/12 03:27:06;;;;;;;2.70;2.00;;;19.20;35.50;;;;;;5042307;28;20060;-79
2022/04/12 03:29:32;;;;;;;2.45;1.85;;;19.30;35.60;;;;;;5042692;28;20571;-80
2022/04/12 03:31:59;;;;;;;2.28;1.80;;;19.20;35.50;;;;;;5042361;28;20079;-79
2022/04/12 03:34:25;;;;;;;2.70;2.05;;;19.20;35.60;;;;;;5041427;28;20018;-80
2022/04/12 03:36:51;;;;;;;3.08;1.90;;;19.20;35.60;;;;;;5023058;28;20040;-78
2022/04/12 03:39:19;;;;;;;3.38;2.10;;;19.20;35.60;;;;;;5019478;28;20105;-77
2022/04/12 03:41:48;;;;;;;2.40;1.90;;;19.20;35.60;;;;;;5019603;28;20025;-78
2022/04/12 03:44:14;;;;;;;2.50;2.00;;;19.20;35.60;;;;;;5035176;28;20017;-80
2022/04/12 03:46:45;;;;;;;2.67;1.88;;;19.20;35.60;;;;;;5035335;28;20100;-78
2022/04/12 03:49:11;;;;;;;3.80;2.00;;;19.20;35.60;;;;;;5019068;28;20049;-77
2022/04/12 03:51:39;;;;;;;3.17;2.10;;;19.20;35.60;;;;;;5035484;28;20091;-79
2022/04/12 03:54:06;;;;;;;2.65;1.90;;;19.20;35.70;;;;;;5037458;28;20072;-77
2022/04/12 03:56:32;;;;;;;2.45;1.88;;;19.20;35.70;;;;;;5021798;28;20029;-80
2022/04/12 03:58:58;;;;;;;2.30;2.03;;;19.20;35.70;;;;;;5039004;28;20018;-80
2022/04/12 04:01:28;;;;;;;2.78;1.90;;;19.20;35.70;;;;;;5039136;28;20490;-80
2022/04/12 04:03:57;;;;;;;3.08;1.80;;;19.10;35.70;;;;;;5038033;28;20047;-80
2022/04/12 04:06:23;;;;;;;2.35;1.85;;;19.20;35.70;;;;;;5037175;28;20559;-83
2022/04/12 04:08:50;;;;;;;3.13;2.10;;;19.20;35.80;;;;;;5041546;28;20095;-81
2022/04/12 04:11:16;;;;;;;2.28;1.77;;;19.10;35.70;;;;;;5040621;28;20031;-81
2022/04/12 04:13:42;;;;;;;2.58;2.00;;;19.10;35.80;;;;;;5042886;28;20126;-82
2022/04/12 04:16:09;;;;;;;2.78;2.10;;;19.10;35.80;;;;;;5041228;28;20066;-82
2022/04/12 04:18:35;;;;;;;2.10;1.77;;;19.20;35.80;;;;;;5042561;28;20033;-84
2022/04/12 04:21:01;;;;;;;2.65;1.85;;;19.10;35.80;;;;;;5044130;28;20018;-81
2022/04/12 04:23:27;;;;;;;2.88;1.98;;;19.10;35.80;;;;;;5040628;28;20025;-82
2022/04/12 04:25:53;;;;;;;2.58;2.05;;;19.10;35.80;;;;;;5025178;28;20021;-83
2022/04/12 04:28:22;;;;;;;2.90;1.70;;;19.10;35.80;;;;;;5039654;28;20068;-82
2022/04/12 04:30:49;;;;;;;3.50;2.10;;;19.10;35.80;;;;;;5039520;28;20017;-83
2022/04/12 04:33:17;;;;;;;2.33;1.90;;;19.10;35.80;;;;;;5039154;28;20029;-82
2022/04/12 04:35:43;;;;;;;2.72;1.98;;;19.10;35.90;;;;;;5037072;28;20100;-81
2022/04/12 04:38:09;;;;;;;2.72;1.90;;;19.10;35.90;;;;;;5036348;28;20041;-80
2022/04/12 04:40:35;;;;;;;3.28;1.90;;;19.10;35.90;;;;;;5037502;28;20040;-81
2022/04/12 04:43:02;;;;;;;2.40;1.92;;;19.10;36.00;;;;;;5036819;28;20109;-81
2022/04/12 04:45:29;;;;;;;2.40;2.05;;;19.10;36.00;;;;;;5038572;28;20148;-81
2022/04/12 04:47:58;;;;;;;2.47;1.90;;;19.10;36.00;;;;;;5037795;28;20143;-80
2022/04/12 04:50:25;;;;;;;;;;;19.10;36.00;;;;;;5038585;28;20017;-81
2022/04/12 04:52:52;;;;;;;2.20;1.70;;;19.10;35.80;;;;;;5038994;28;19901;-81
2022/04/12 04:55:18;;;;;;;2.30;2.05;;;19.30;35.80;;;;;;5036273;28;20480;-80
2022/04/12 04:57:44;;;;;;;2.33;1.75;;;19.40;35.60;;;;;;5019531;28;20022;-80
2022/04/12 05:00:15;;;;;;;2.13;1.65;;;19.50;35.20;;;;;;5035443;28;20010;-79
2022/04/12 05:02:45;;;;;;;2.10;1.85;;;19.70;34.80;;;;;;5035585;28;20021;-81
2022/04/12 05:05:11;;;;;;;2.22;1.92;;;19.80;34.50;;;;;;5035008;28;20017;-79
2022/04/12 05:07:41;;;;;;;3.22;1.83;;;20.00;34.30;;;;;;5036715;28;20029;-80
2022/04/12 05:10:08;;;;;;;2.70;1.80;;;20.10;34.20;;;;;;5022890;28;20025;-81
2022/04/12 05:12:34;;;;;;;2.25;1.88;;;20.10;34.00;;;;;;5038469;28;20067;-80
2022/04/12 05:15:01;;;;;;;2.70;1.77;;;20.20;33.80;;;;;;5040372;28;20164;-81
2022/04/12 05:17:27;;;;;;;1.73;1.60;;;20.30;33.70;;;;;;5037321;28;20029;-79
2022/04/12 05:19:53;;;;;;;2.13;1.75;;;20.40;33.70;;;;;;5037379;28;20033;-81
2022/04/12 05:22:19;;;;;;;2.45;1.80;;;20.40;33.60;;;;;;5036062;28;20037;-79
2022/04/12 05:24:46;;;;;;;2.60;2.03;;;20.40;33.50;;;;;;5034602;28;20021;-78
2022/04/12 05:27:12;;;;;;;2.45;1.90;;;20.50;33.40;;;;;;5033073;28;20049;-79
2022/04/12 05:29:38;;;;;;;2.83;2.10;;;20.50;33.40;;;;;;5016188;28;20071;-79
2022/04/12 05:32:05;;;;;;;2.25;1.85;;;20.50;33.40;;;;;;5032693;28;20026;-79
2022/04/12 05:34:32;;;;;;;1.90;1.70;;;20.60;33.40;;;;;;5033060;28;20021;-79
2022/04/12 05:36:58;;;;;;;2.80;1.80;;;20.60;33.20;;;;;;5016683;28;20025;-79
2022/04/12 05:39:24;;;;;;;2.30;1.63;;;20.70;33.10;;;;;;5033419;28;20101;-79
2022/04/12 05:41:50;;;;;;;2.28;1.80;;;20.70;33.10;;;;;;5033556;28;20468;-78
2022/04/12 05:44:18;;;;;;;4.07;1.70;;;20.70;33.10;;;;;;5033515;28;20029;-79
2022/04/12 05:46:44;;;;;;;1.98;1.63;;;20.80;33.00;;;;;;5033199;28;20033;-77
2022/04/12 05:49:10;;;;;;;2.25;1.60;;;20.90;32.90;;;;;;5037078;28;20029;-78
2022/04/12 05:51:36;;;;;;;2.30;1.77;;;21.00;32.80;;;;;;5037700;28;20045;-80
2022/04/12 05:54:02;;;;;;;1.92;1.60;;;21.10;32.60;;;;;;5037211;28;20021;-78
2022/04/12 05:56:28;;;;;;;1.77;1.40;;;21.10;32.50;;;;;;5036684;28;20025;-78
2022/04/12 05:58:57;;;;;;;2.15;1.70;;;21.20;32.40;;;;;;5037018;28;20052;-77
2022/04/12 06:01:23;;;;;;;2.05;1.65;;;21.30;32.30;;;;;;5037987;28;20075;-80
2022/04/12 06:03:49;;;;;;;2.03;1.45;;;21.30;32.20;;;;;;5037096;28;20434;-77
2022/04/12 06:06:16;;;;;;;2.13;1.70;;;21.30;32.20;;;;;;5037741;28;20018;-78
2022/04/12 06:08:42;;;;;;;2.25;1.45;;;21.40;32.10;;;;;;5043040;28;20021;-80
2022/04/12 06:11:08;;;;;;;1.92;1.52;;;21.50;32.00;;;;;;5044280;28;20018;-78
2022/04/12 06:13:34;;;;;;;1.88;1.50;;;21.50;31.90;;;;;;5042237;28;20029;-79
2022/04/12 06:16:02;;;;;;;2.42;1.48;;;21.60;31.80;;;;;;5025121;28;20108;-79
2022/04/12 06:18:28;;;;;;;2.05;1.50;;;21.70;31.70;;;;;;5041978;28;20100;-79
2022/04/12 06:20:54;;;;;;;3.13;1.70;;;21.80;31.50;;;;;;5041649;28;20089;-79
2022/04/12 06:23:20;;;;;;;2.20;1.50;;;21.90;32.00;;;;;;5038688;28;20460;-76
2022/04/12 06:25:47;;;;;;;1.73;1.50;;;21.90;31.30;;;;;;5037965;28;20026;-78
2022/04/12 06:28:12;;;;;;;2.22;1.50;;;22.00;31.40;;;;;;5036875;28;20133;-76
2022/04/12 06:30:39;;;;;;;2.00;1.40;;;22.10;31.10;;;;;;5036556;28;20113;-77
2022/04/12 06:33:06;;;;;;;1.80;1.40;;;22.20;31.00;;;;;;5036274;28;20075;-75
2022/04/12 06:35:32;;;;;;;1.77;1.35;;;22.30;30.80;;;;;;5036135;28;20026;-78
2022/04/12 06:37:58;;;;;;;1.90;1.35;;;22.40;30.70;;;;;;5035957;28;20022;-78
2022/04/12 06:40:27;;;;;;;2.20;1.60;;;22.50;30.60;;;;;;5036080;28;20081;-78
2022/04/12 06:42:53;;;;;;;1.77;1.58;;;22.60;30.50;;;;;;5036273;28;20100;-78
2022/04/12 06:45:19;;;;;;;2.10;1.60;;;22.60;30.30;;;;;;5019039;28;20056;-79
2022/04/12 06:47:51;;;;;;;2.25;1.33;;;22.70;30.20;;;;;;5036186;28;20028;-77
2022/04/12 06:50:18;;;;;;;1.80;1.20;;;22.80;30.20;;;;;;5020405;28;20014;-78
2022/04/12 06:52:44;;;;;;;2.58;1.60;;;22.90;30.10;;;;;;5036420;28;20033;-81
2022/04/12 06:55:10;;;;;;;2.03;1.60;;;23.00;30.00;;;;;;5040825;28;20014;-78
2022/04/12 06:57:36;;;;;;;2.30;1.30;;;23.10;29.90;;;;;;5040253;28;20092;-79
2022/04/12 07:00:07;;;;;;;2.60;1.50;;;23.20;29.80;;;;;;5040914;28;20092;-78
2022/04/12 07:02:33;;;;;;;1.98;1.42;;;23.30;29.70;;;;;;5040455;28;20025;-79
2022/04/12 07:05:00;;;;;;;1.70;1.40;;;23.40;29.60;;;;;;5040833;28;20013;-78
2022/04/12 07:07:27;;;;;;;1.73;1.30;;;23.40;29.50;;;;;;5041190;28;20048;-77
2022/04/12 07:09:55;;;;;;;1.30;1.10;;;23.30;29.50;;;;;;5024146;28;20018;-79
2022/04/12 07:12:21;;;;;;;1.90;1.50;;;23.30;29.50;;;;;;5040183;28;20081;-79
2022/04/12 07:14:47;;;;;;;1.98;1.20;;;23.30;29.60;;;;;;5039983;28;20045;-77
2022/04/12 07:17:13;;;;;;;2.20;1.50;;;23.40;29.60;;;;;;5040336;28;20034;-79
2022/04/12 07:19:39;;;;;;;1.30;1.20;;;23.50;29.60;;;;;;5039802;28;20017;-77
2022/04/12 07:22:05;;;;;;;2.17;1.40;;;23.60;29.40;;;;;;5038302;28;20033;-76
2022/04/12 07:24:31;;;;;;;2.10;1.40;;;23.80;29.30;;;;;;5035969;28;20021;-77
2022/04/12 07:26:57;;;;;;;1.70;1.20;;;23.90;29.10;;;;;;5036017;28;20017;-76
2022/04/12 07:29:23;;;;;;;2.30;1.50;;;24.10;29.00;;;;;;5019068;28;20120;-77
2022/04/12 07:31:50;;;;;;;1.95;1.30;;;24.20;28.90;;;;;;5035450;28;20017;-76
2022/04/12 07:34:15;;;;;;;2.30;1.20;;;24.30;28.80;;;;;;5019685;28;20030;-77
2022/04/12 07:36:47;;;;;;;2.03;1.25;;;24.40;28.60;;;;;;5035705;28;20086;-77
2022/04/12 07:39:14;;;;;;;2.42;1.27;;;24.50;28.50;;;;;;5035362;28;20017;-77
2022/04/12 07:41:40;;;;;;;2.10;1.10;;;24.60;28.40;;;;;;5034922;28;20014;-77
2022/04/12 07:44:06;;;;;;;1.63;1.38;;;24.70;28.30;;;;;;5035028;28;20028;-77
2022/04/12 07:46:32;;;;;;;1.65;1.20;;;24.80;28.30;;;;;;5034625;28;20022;-77
2022/04/12 07:48:58;;;;;;;2.33;1.15;;;24.90;28.20;;;;;;5034726;28;20503;-77
2022/04/12 07:51:24;;;;;;;1.90;1.23;;;25.00;28.20;;;;;;5034680;28;20030;-77
2022/04/12 07:53:51;;;;;;;1.85;1.30;;;25.10;28.00;;;;;;5034841;28;20028;-76
2022/04/12 07:56:17;;;;;;;1.65;1.05;;;25.20;28.00;;;;;;5034785;28;20108;-77
2022/04/12 07:58:43;;;;;;;1.45;1.27;;;25.10;27.90;;;;;;5034605;28;20443;-76
2022/04/12 08:01:09;;;;;;;2.08;1.30;;;25.10;28.10;;;;;;5018281;28;20020;-76
2022/04/12 08:03:36;;;;;;;2.45;1.30;;;25.10;28.00;;;;;;5034719;28;20029;-77
2022/04/12 08:06:02;;;;;;;1.27;1.15;;;25.20;28.10;;;;;;5018417;28;20021;-76
2022/04/12 08:08:29;;;;;;;1.45;1.08;;;25.30;28.00;;;;;;5034707;28;20013;-77
2022/04/12 08:10:54;;;;;;;1.75;1.17;;;25.30;27.90;;;;;;5035254;28;20018;-76
2022/04/12 08:13:20;;;;;;;3.05;1.30;;;25.30;27.90;;;;;;5035301;28;20026;-77
2022/04/12 08:15:47;;;;;;;1.90;1.13;;;25.40;27.80;;;;;;5035843;28;20049;-76
2022/04/12 08:18:13;;;;;;;1.17;1.00;;;25.40;27.80;;;;;;5034816;28;20030;-77
2022/04/12 08:20:39;;;;;;;1.92;1.23;;;25.50;27.90;;;;;;5034898;28;20491;-75
2022/04/12 08:23:08;;;;;;;4.65;1.35;;;25.50;27.80;;;;;;5037831;28;20477;-76
2022/04/12 08:25:34;;;;;;;2.25;1.40;;;25.50;27.80;;;;;;5037148;28;20096;-77
2022/04/12 08:28:00;;;;;;;2.22;1.20;;;25.50;27.80;;;;;;5036601;28;20043;-76
2022/04/12 08:30:26;;;;;;;2.00;1.10;;;25.40;27.90;;;;;;5036402;28;20010;-76
2022/04/12 08:32:53;;;;;;;2.70;1.25;;;25.40;27.90;;;;;;5037389;28;20010;-78
2022/04/12 08:35:18;;;;;;;1.63;1.02;;;25.40;27.90;;;;;;5036378;28;20025;-77
2022/04/12 08:37:44;;;;;;;2.65;1.38;;;25.40;28.00;;;;;;5035786;28;20384;-79
2022/04/12 08:40:11;;;;;;;2.92;1.10;;;25.40;28.00;;;;;;5035809;28;20018;-76
2022/04/12 08:42:37;;;;;;;3.13;1.17;;;25.40;28.00;;;;;;5018829;28;20018;-76
2022/04/12 08:45:06;;;;;;;3.28;1.40;;;25.50;28.10;;;;;;5035684;28;20021;-76
2022/04/12 08:47:32;;;;;;;1.98;1.00;;;25.50;28.10;;;;;;5037408;28;20026;-77
2022/04/12 08:50:00;;;;;;;2.40;1.40;;;25.50;28.00;;;;;;5038135;28;20018;-76
2022/04/12 08:52:26;;;;;;;3.97;1.23;;;25.70;28.00;;;;;;5035911;28;20093;-76
2022/04/12 08:54:52;;;;;;;3.40;1.27;;;25.70;28.00;;;;;;5034685;28;20041;-77
2022/04/12 08:57:19;;;;;;;3.95;1.35;;;25.70;28.00;;;;;;5034626;28;20025;-76
2022/04/12 08:59:46;;;;;;;3.00;1.20;;;25.70;28.00;;;;;;5036609;28;20025;-76
2022/04/12 09:02:13;;;;;;;3.97;1.20;;;25.70;28.00;;;;;;5035433;28;20021;-76
2022/04/12 09:04:39;;;;;;;2.15;1.20;;;25.80;28.10;;;;;;5036534;28;20091;-76
2022/04/12 09:07:11;;;;;;;3.05;1.30;;;25.80;28.00;;;;;;5032852;28;20503;-77
2022/04/12 09:09:41;;;;;;;4.95;1.20;;;25.80;28.00;;;;;;5034043;28;20029;-79
2022/04/12 09:12:09;;;;;;;3.30;1.20;;;25.80;28.10;;;;;;5033238;28;20017;-76
2022/04/12 09:14:52;;;;;;;3.13;1.27;;;25.70;28.10;;;;;;5016894;28;20029;-78
2022/04/12 09:17:27;;;;;;;3.47;1.48;;;25.60;28.30;;;;;;5017705;28;20195;-77
2022/04/12 09:19:55;;;;;;;2.03;1.20;;;25.40;28.30;;;;;;5034617;28;20024;-78
2022/04/12 09:22:22;;;;;;;2.17;1.35;;;25.30;28.40;;;;;;5032453;28;20037;-77
2022/04/12 09:24:52;;;;;;;3.53;1.40;;;25.30;28.60;;;;;;5033761;28;20077;-77
2022/04/12 09:27:23;;;;;;;5.10;1.27;;;25.20;28.70;;;;;;5033563;28;20016;-76
2022/04/12 09:29:53;;;;;;;2.40;1.20;;;25.20;28.90;;;;;;5032720;28;20021;-77
2022/04/12 09:32:21;;;;;;;2.85;1.30;;;25.20;28.90;;;;;;5032801;28;20014;-77
2022/04/12 09:34:48;;;;;;;4.13;1.20;;;25.20;28.90;;;;;;5032889;28;20063;-79
2022/04/12 09:37:28;;;;;;;2.78;1.00;;;25.30;28.90;;;;;;5033143;28;20508;-76
2022/04/12 09:39:57;;;;;;;2.63;1.10;;;25.30;28.90;;;;;;5033294;28;20082;-78
2022/04/12 09:42:49;;;;;;;4.22;1.40;;;25.40;28.90;;;;;;5033839;28;20018;-78
2022/04/12 09:45:27;;;;;;;3.92;1.30;;;25.40;28.80;;;;;;5033533;28;20091;-78
2022/04/12 09:47:54;;;;;;;3.05;1.20;;;25.40;28.90;;;;;;5034037;28;20029;-77
2022/04/12 09:50:21;;;;;;;2.67;1.20;;;25.40;28.90;;;;;;5033960;28;20017;-77
2022/04/12 09:53:00;;;;;;;3.35;1.20;;;25.30;29.00;;;;;;5037052;28;20029;-77
2022/04/12 09:55:49;;;;;;;2.90;1.30;;;25.40;29.00;;;;;;5037293;28;20010;-78
2022/04/12 09:58:21;;;;;;;2.90;1.20;;;25.40;29.00;;;;;;5037512;28;20060;-78
2022/04/12 10:00:47;;;;;;;2.78;1.10;;;25.40;29.00;;;;;;5020891;28;20018;-78
2022/04/12 10:03:18;;;;;;;4.13;1.92;;;25.40;29.00;;;;;;5020462;28;20009;-79
2022/04/12 10:05:44;;;;;;;2.42;1.20;;;25.40;29.10;;;;;;5020055;28;20103;-78
2022/04/12 10:08:11;;;;;;;2.28;1.05;;;25.30;29.10;;;;;;5024136;28;20469;-77
2022/04/12 10:10:40;;;;;;;3.28;1.33;;;25.40;29.10;;;;;;5039585;28;20006;-78
2022/04/12 10:13:06;;;;;;;2.10;1.20;;;25.40;29.10;;;;;;5038880;28;20029;-79
2022/04/12 10:15:33;;;;;;;3.30;1.17;;;25.40;29.20;;;;;;5039107;28;20044;-76
2022/04/12 10:17:58;;;;;;;1.75;1.10;;;25.40;29.20;;;;;;5038901;28;20051;-79
2022/04/12 10:20:25;;;;;;;3.67;1.20;;;25.30;29.20;;;;;;5037605;28;20025;-77
2022/04/12 10:22:52;;;;;;;2.47;1.02;;;25.30;29.30;;;;;;5036446;28;20480;-78
2022/04/12 10:25:23;;;;;;;3.35;1.58;;;25.30;29.30;;;;;;5035307;28;20044;-76
2022/04/12 10:27:50;;;;;;;3.85;1.10;;;25.30;29.30;;;;;;5034492;28;20013;-78
2022/04/12 10:30:21;;;;;;;5.00;1.40;;;25.30;29.40;;;;;;5034804;28;20135;-77
2022/04/12 10:33:03;;;;;;;5.10;1.70;;;25.30;29.50;;;;;;5034673;28;20036;-76
2022/04/12 10:35:29;;;;;;;6.22;1.35;;;25.30;29.50;;;;;;5037228;28;20026;-76
2022/04/12 10:37:58;;;;;;;6.93;1.42;;;25.30;29.50;;;;;;5040544;28;20022;-77
2022/04/12 10:40:25;;;;;;;5.83;1.37;;;25.20;29.60;;;;;;5041478;28;20032;-77
2022/04/12 10:42:54;;;;;;;7.38;1.38;;;25.20;29.70;;;;;;5025291;28;20755;-76
2022/04/12 10:45:29;;;;;;;8.55;2.03;;;25.10;29.80;;;;;;5041360;28;20021;-76
2022/04/12 10:47:57;;;;;;;7.82;1.48;;;25.10;29.80;;;;;;5041536;28;20006;-77
2022/04/12 10:50:22;;;;;;;6.10;1.30;;;25.00;29.80;;;;;;5041547;28;20077;-76
2022/04/12 10:52:49;;;;;;;11.82;1.85;;;25.00;29.90;;;;;;5038868;28;20036;-76
2022/04/12 10:55:23;;;;;;;7.28;1.75;;;25.00;30.00;;;;;;5037614;28;20532;-76
2022/04/12 10:57:50;;;;;;;9.27;1.83;;;25.00;30.00;;;;;;5037219;28;20075;-75
2022/04/12 11:00:17;;;;;;;8.38;1.58;;;24.90;30.10;;;;;;5036217;28;20083;-76
2022/04/12 11:02:56;;;;;;;10.35;1.50;;;24.90;30.20;;;;;;5036048;28;20048;-77
2022/04/12 11:05:46;;;;;;;9.18;1.70;;;24.90;30.30;;;;;;5036349;28;20084;-76
2022/04/12 11:08:15;;;;;;;5.65;1.58;;;24.80;30.40;;;;;;5034544;28;20026;-76
2022/04/12 11:10:54;;;;;;;7.45;1.42;;;24.80;30.50;;;;;;5041012;28;20069;-75
2022/04/12 11:13:21;;;;;;;9.88;1.85;;;24.80;30.50;;;;;;5039716;28;20017;-77
2022/04/12 11:16:01;;;;;;;10.95;1.90;;;24.80;30.70;;;;;;5039659;28;20030;-77
2022/04/12 11:18:47;;;;;;;5.10;1.40;;;24.70;30.70;;;;;;5039459;28;20063;-76
2022/04/12 11:21:12;;;;;;;4.93;1.38;;;24.70;30.80;;;;;;5039615;28;20071;-77
2022/04/12 11:23:55;;;;;;;6.32;1.92;;;24.60;31.00;;;;;;5037886;28;20013;-77
2022/04/12 11:26:45;;;;;;;9.77;1.70;;;24.60;31.10;;;;;;5038138;28;20028;-77
2022/04/12 11:29:13;;;;;;;3.95;1.52;;;24.50;31.20;;;;;;5037436;28;20518;-76
2022/04/12 11:31:40;;;;;;;7.88;1.80;;;24.40;31.30;;;;;;5037930;28;20017;-78
2022/04/12 11:34:06;;;;;;;10.30;2.45;;;24.40;31.40;;;;;;5037660;28;20018;-77
2022/04/12 11:36:32;;;;;;;5.97;2.22;;;24.40;31.50;;;;;;5036378;28;20029;-77
2022/04/12 11:38:58;;;;;;;6.68;1.70;;;24.30;31.60;;;;;;5036148;28;20021;-77
2022/04/12 11:41:24;;;;;;;7.70;1.83;;;24.30;31.70;;;;;;5036074;28;20017;-77
2022/04/12 11:44:00;;;;;;;4.00;1.60;;;24.30;31.80;;;;;;5036096;28;20017;-77
2022/04/12 11:46:33;;;;;;;5.70;1.42;;;24.20;31.90;;;;;;5035700;28;20063;-76
2022/04/12 11:49:12;;;;;;;11.40;2.25;;;24.20;32.00;;;;;;5035171;28;20021;-77
2022/04/12 11:51:42;;;;;;;8.13;1.40;;;24.10;32.10;;;;;;5019023;28;20021;-76
2022/04/12 11:54:24;;;;;;;4.68;1.77;;;24.10;32.20;;;;;;5034816;28;20272;-77
2022/04/12 11:57:06;;;;;;;4.45;1.50;;;24.10;32.30;;;;;;5037582;28;20079;-77
2022/04/12 11:59:37;;;;;;;5.63;1.70;;;24.00;32.40;;;;;;5035808;28;20067;-75
2022/04/12 12:02:05;;;;;;;6.97;1.60;;;24.00;32.50;;;;;;5035315;28;20032;-76
2022/04/12 12:04:34;;;;;;;3.63;1.58;;;23.90;32.50;;;;;;5035432;28;20056;-76
2022/04/12 12:07:01;;;;;;;6.10;1.65;;;23.90;32.60;;;;;;5035828;28;20072;-76
2022/04/12 12:09:27;;;;;;;3.75;1.60;;;23.90;32.70;;;;;;5036650;28;20021;-77
2022/04/12 12:11:58;;;;;;;4.03;1.73;;;23.80;32.70;;;;;;5037779;28;20028;-76
2022/04/12 12:14:24;;;;;;;4.30;1.45;;;23.80;32.80;;;;;;5037794;28;20017;-76
2022/04/12 12:17:18;;;;;;;3.67;1.63;;;23.80;32.80;;;;;;5037127;28;20408;-76
2022/04/12 12:19:46;;;;;;;2.80;1.27;;;23.80;32.90;;;;;;5036899;28;20032;-76
2022/04/12 12:22:12;;;;;;;5.22;1.70;;;23.80;32.90;;;;;;5035312;28;20459;-78
2022/04/12 12:24:57;;;;;;;6.13;1.75;;;23.80;32.90;;;;;;5033838;28;20464;-76
2022/04/12 12:27:33;;;;;;;4.63;1.40;;;23.70;33.00;;;;;;5035238;28;20033;-76
2022/04/12 12:30:16;;;;;;;5.32;1.38;;;23.70;33.00;;;;;;5035086;28;20020;-77
2022/04/12 12:32:42;;;;;;;3.90;1.48;;;23.70;33.10;;;;;;5035067;28;20096;-76
2022/04/12 12:35:13;;;;;;;3.42;1.30;;;23.70;33.20;;;;;;5035056;28;20018;-77
2022/04/12 12:37:39;;;;;;;2.45;1.40;;;23.70;33.20;;;;;;5021181;28;20075;-78
2022/04/12 12:40:22;;;;;;;3.38;1.70;;;23.70;33.30;;;;;;5039480;28;20022;-77
2022/04/12 12:42:51;;;;;;;6.20;1.50;;;23.60;33.30;;;;;;5040607;28;20022;-77
2022/04/12 12:45:19;;;;;;;4.38;1.30;;;23.70;33.40;;;;;;5041588;28;20044;-77
2022/04/12 12:47:47;;;;;;;2.95;1.13;;;23.60;33.40;;;;;;5039888;28;20017;-77
2022/04/12 12:50:15;;;;;;;6.30;1.40;;;23.60;33.40;;;;;;5039547;28;20414;-77
2022/04/12 12:52:44;;;;;;;4.63;1.85;;;23.60;33.50;;;;;;5035525;28;20443;-78
2022/04/12 12:55:15;;;;;;;3.80;1.33;;;23.50;33.60;;;;;;5033292;28;20009;-76